createdAt,value
2022-08-06T00:00:03.262Z,12.60
2022-08-06T00:02:25.713Z,12.60
2022-08-06T00:04:57.931Z,12.67
2022-08-06T00:07:25.760Z,12.67
2022-08-06T00:09:59.923Z,12.70
2022-08-06T00:12:35.221Z,12.70
2022-08-06T00:15:12.162Z,12.67
2022-08-06T00:17:41.043Z,12.49
2022-08-06T00:20:08.317Z,12.43
2022-08-06T00:22:37.275Z,12.43
2022-08-06T00:25:04.227Z,12.37
2022-08-06T00:27:38.942Z,12.39
2022-08-06T00:30:14.824Z,12.36
2022-08-06T00:32:46.484Z,12.35
2022-08-06T00:35:20.178Z,12.33
2022-08-06T00:37:57.372Z,12.28
2022-08-06T00:40:30.642Z,12.31
2022-08-06T00:43:06.432Z,12.26
2022-08-06T00:45:38.070Z,12.12
2022-08-06T00:48:17.240Z,12.04
2022-08-06T00:51:00.922Z,12.01
2022-08-06T00:53:34.039Z,12.04
2022-08-06T00:56:08.404Z,11.88
2022-08-06T00:58:40.563Z,11.74
2022-08-06T01:01:17.234Z,11.71
2022-08-06T01:03:51.634Z,11.63
2022-08-06T01:06:57.293Z,11.60
2022-08-06T01:09:10.201Z,11.67
2022-08-06T01:11:38.193Z,11.75
2022-08-06T01:14:06.015Z,11.80
2022-08-06T01:16:45.321Z,11.90
2022-08-06T01:19:29.517Z,11.98
2022-08-06T01:22:31.269Z,12.00
2022-08-06T01:25:04.264Z,12.04
2022-08-06T01:28:00.879Z,12.05
2022-08-06T01:30:38.727Z,11.96
2022-08-06T01:33:15.597Z,11.93
2022-08-06T01:35:54.915Z,11.90
2022-08-06T01:38:36.826Z,11.76
2022-08-06T01:41:14.123Z,11.68
2022-08-06T01:44:07.072Z,11.68
2022-08-06T01:46:32.594Z,11.60
2022-08-06T01:49:09.603Z,11.47
2022-08-06T01:52:14.023Z,11.48
2022-08-06T01:54:43.592Z,11.47
2022-08-06T01:57:14.519Z,11.44
2022-08-06T01:59:56.348Z,11.35
2022-08-06T02:02:28.648Z,11.31
2022-08-06T02:05:01.774Z,11.38
2022-08-06T02:08:36.806Z,11.46
2022-08-06T02:10:33.829Z,11.32
2022-08-06T02:13:03.767Z,11.31
2022-08-06T02:15:45.995Z,11.33
2022-08-06T02:18:35.227Z,11.38
2022-08-06T02:21:18.935Z,11.31
2022-08-06T02:23:55.342Z,11.36
2022-08-06T02:26:25.718Z,11.38
2022-08-06T02:29:00.939Z,11.42
2022-08-06T02:31:27.459Z,11.43
2022-08-06T02:34:02.554Z,11.47
2022-08-06T02:36:50.668Z,11.43
2022-08-06T02:39:29.840Z,11.38
2022-08-06T02:42:18.793Z,11.32
2022-08-06T02:45:09.723Z,11.07
2022-08-06T02:48:09.508Z,11.06
2022-08-06T02:50:43.694Z,11.08
2022-08-06T02:53:24.901Z,11.07
2022-08-06T02:56:07.428Z,11.13
2022-08-06T02:58:39.511Z,11.07
2022-08-06T03:01:22.174Z,11.02
2022-08-06T03:03:59.161Z,10.90
2022-08-06T03:06:30.614Z,10.66
2022-08-06T03:08:58.923Z,10.60
2022-08-06T03:11:27.087Z,10.60
2022-08-06T03:14:01.607Z,10.59
2022-08-06T03:16:36.269Z,10.70
2022-08-06T03:19:57.832Z,10.87
2022-08-06T03:21:55.730Z,10.89
2022-08-06T03:24:26.482Z,10.87
2022-08-06T03:26:57.311Z,10.74
2022-08-06T03:29:26.269Z,10.79
2022-08-06T03:31:58.482Z,10.80
2022-08-06T03:34:42.311Z,10.70
2022-08-06T03:37:10.133Z,10.59
2022-08-06T03:39:42.885Z,10.58
2022-08-06T03:42:13.937Z,10.56
2022-08-06T03:44:40.777Z,10.64
2022-08-06T03:47:31.086Z,10.70
2022-08-06T03:50:25.830Z,10.81
2022-08-06T03:53:20.453Z,10.99
2022-08-06T03:55:56.966Z,11.02
2022-08-06T03:58:28.529Z,10.97
2022-08-06T04:01:04.105Z,11.01
2022-08-06T04:03:39.458Z,11.01
2022-08-06T04:06:16.192Z,10.87
2022-08-06T04:08:47.474Z,10.71
2022-08-06T04:12:13.543Z,10.57
2022-08-06T04:14:06.962Z,10.61
2022-08-06T04:16:36.113Z,10.60
2022-08-06T04:19:09.268Z,10.62
2022-08-06T04:23:05.626Z,10.62
2022-08-06T04:24:30.030Z,10.68
2022-08-06T04:27:00.188Z,10.76
2022-08-06T04:29:51.101Z,10.66
2022-08-06T04:32:29.942Z,10.64
2022-08-06T04:36:05.143Z,10.53
2022-08-06T04:37:52.937Z,10.46
2022-08-06T04:40:35.027Z,10.40
2022-08-06T04:43:08.556Z,10.34
2022-08-06T04:46:18.300Z,10.47
2022-08-06T04:48:24.824Z,10.35
2022-08-06T04:50:54.529Z,10.30
2022-08-06T04:53:43.452Z,10.37
2022-08-06T04:56:09.469Z,10.48
2022-08-06T04:58:42.449Z,10.43
2022-08-06T05:01:11.277Z,10.55
2022-08-06T05:04:07.522Z,10.60
2022-08-06T05:06:32.915Z,10.67
2022-08-06T05:09:07.247Z,10.73
2022-08-06T05:12:22.996Z,10.78
2022-08-06T05:14:53.424Z,10.84
2022-08-06T05:17:29.631Z,10.92
2022-08-06T05:20:12.968Z,11.05
2022-08-06T05:23:01.313Z,11.17
2022-08-06T05:25:30.479Z,11.26
2022-08-06T05:28:11.336Z,11.34
2022-08-06T05:30:47.021Z,11.39
2022-08-06T05:33:30.517Z,11.47
2022-08-06T05:36:05.259Z,11.59
2022-08-06T05:38:37.247Z,11.76
2022-08-06T05:41:09.386Z,11.96
2022-08-06T05:43:59.633Z,12.22
2022-08-06T05:46:30.926Z,12.40
2022-08-06T05:49:31.317Z,12.53
2022-08-06T05:52:14.536Z,12.68
2022-08-06T05:55:03.952Z,12.87
2022-08-06T05:57:41.345Z,12.98
2022-08-06T06:00:31.575Z,13.04
2022-08-06T06:03:07.778Z,13.18
2022-08-06T06:06:06.911Z,13.27
2022-08-06T06:08:37.890Z,13.41
2022-08-06T06:11:10.029Z,13.49
2022-08-06T06:13:57.938Z,13.66
2022-08-06T06:16:29.829Z,13.82
2022-08-06T06:19:15.093Z,13.92
2022-08-06T06:22:03.838Z,14.08
2022-08-06T06:24:36.562Z,14.20
2022-08-06T06:27:23.399Z,14.35
2022-08-06T06:30:10.433Z,14.53
2022-08-06T06:33:01.686Z,14.69
2022-08-06T06:35:54.834Z,14.78
2022-08-06T06:38:24.733Z,14.83
2022-08-06T06:41:19.989Z,14.95
2022-08-06T06:43:57.335Z,15.06
2022-08-06T06:46:43.598Z,15.16
2022-08-06T06:49:59.567Z,15.33
2022-08-06T06:52:30.011Z,15.50
2022-08-06T06:55:19.413Z,15.61
2022-08-06T06:57:58.861Z,15.77
2022-08-06T07:00:44.788Z,15.84
2022-08-06T07:03:15.861Z,15.97
2022-08-06T07:06:05.055Z,16.13
2022-08-06T07:08:37.508Z,16.22
2022-08-06T07:11:10.227Z,16.36
2022-08-06T07:13:47.572Z,16.48
2022-08-06T07:16:34.765Z,16.57
2022-08-06T07:19:05.568Z,16.64
2022-08-06T07:21:33.102Z,16.72
2022-08-06T07:24:06.630Z,16.81
2022-08-06T07:26:50.686Z,16.98
2022-08-06T07:29:49.515Z,17.04
2022-08-06T07:32:11.193Z,17.10
2022-08-06T07:34:55.998Z,17.19
2022-08-06T07:37:38.342Z,17.36
2022-08-06T07:40:08.222Z,17.52
2022-08-06T07:42:37.473Z,17.58
2022-08-06T07:45:14.382Z,17.70
2022-08-06T07:47:55.214Z,17.79
2022-08-06T07:50:25.367Z,17.81
2022-08-06T07:52:55.743Z,17.89
2022-08-06T07:55:26.411Z,18.04
2022-08-06T07:58:00.440Z,18.17
2022-08-06T08:00:28.943Z,18.27
2022-08-06T08:03:43.499Z,18.36
2022-08-06T08:06:25.017Z,18.65
2022-08-06T08:08:58.177Z,18.89
2022-08-06T08:12:16.217Z,18.54
2022-08-06T08:14:15.623Z,18.42
2022-08-06T08:16:42.238Z,18.60
2022-08-06T08:19:35.028Z,18.77
2022-08-06T08:22:10.033Z,18.86
2022-08-06T08:24:38.311Z,18.95
2022-08-06T08:27:11.922Z,19.17
2022-08-06T08:29:51.487Z,19.21
2022-08-06T08:32:22.019Z,19.57
2022-08-06T08:34:52.859Z,19.66
2022-08-06T08:37:20.832Z,19.34
2022-08-06T08:39:47.735Z,19.00
2022-08-06T08:42:32.289Z,19.04
2022-08-06T08:45:02.194Z,19.11
2022-08-06T08:47:46.588Z,19.26
2022-08-06T08:50:20.384Z,19.76
2022-08-06T08:52:51.285Z,20.10
2022-08-06T08:57:02.275Z,20.23
2022-08-06T08:58:40.449Z,20.03
2022-08-06T09:01:00.852Z,19.74
2022-08-06T09:03:27.903Z,19.52
2022-08-06T09:05:56.871Z,19.38
2022-08-06T09:08:59.699Z,19.79
2022-08-06T09:12:03.253Z,20.06
2022-08-06T09:14:04.458Z,20.01
2022-08-06T09:16:36.290Z,19.85
2022-08-06T09:19:04.901Z,20.05
2022-08-06T09:21:36.981Z,20.15
2022-08-06T09:24:05.324Z,20.58
2022-08-06T09:26:53.663Z,20.91
2022-08-06T09:29:24.019Z,20.65
2022-08-06T09:32:01.712Z,20.71
2022-08-06T09:34:39.085Z,21.06
2022-08-06T09:37:08.644Z,21.10
2022-08-06T09:39:46.594Z,21.37
2022-08-06T09:42:49.267Z,21.68
2022-08-06T09:45:42.057Z,21.58
2022-08-06T09:48:17.356Z,21.82
2022-08-06T09:50:50.742Z,21.94
2022-08-06T09:53:21.075Z,22.10
2022-08-06T09:55:57.751Z,21.70
2022-08-06T09:58:37.321Z,21.38
2022-08-06T10:01:23.407Z,21.35
2022-08-06T10:04:05.341Z,21.10
2022-08-06T10:06:39.812Z,20.89
2022-08-06T10:09:41.812Z,20.65
2022-08-06T10:11:59.874Z,20.61
2022-08-06T10:14:26.343Z,20.59
2022-08-06T10:17:09.734Z,20.64
2022-08-06T10:19:37.646Z,21.04
2022-08-06T10:22:13.295Z,21.17
2022-08-06T10:24:49.715Z,21.19
2022-08-06T10:27:23.260Z,21.52
2022-08-06T10:29:52.387Z,21.72
2022-08-06T10:32:50.312Z,21.88
2022-08-06T10:35:18.797Z,22.04
2022-08-06T10:37:53.301Z,21.99
2022-08-06T10:40:30.134Z,21.98
2022-08-06T10:42:59.921Z,21.56
2022-08-06T10:45:48.728Z,21.39
2022-08-06T10:49:00.038Z,21.14
2022-08-06T10:51:05.352Z,21.08
2022-08-06T10:54:00.961Z,21.07
2022-08-06T10:56:21.694Z,21.10
2022-08-06T10:58:53.985Z,21.22
2022-08-06T11:01:43.900Z,21.50
2022-08-06T11:04:22.404Z,21.50
2022-08-06T11:07:07.674Z,21.58
2022-08-06T11:10:14.626Z,21.59
2022-08-06T11:12:57.400Z,21.75
2022-08-06T11:15:24.902Z,21.50
2022-08-06T11:18:07.660Z,21.48
2022-08-06T11:20:46.629Z,21.48
2022-08-06T11:23:52.869Z,21.69
2022-08-06T11:26:02.981Z,21.68
2022-08-06T11:28:34.416Z,21.51
2022-08-06T11:31:03.515Z,21.46
2022-08-06T11:33:39.009Z,21.41
2022-08-06T11:36:11.194Z,21.37
2022-08-06T11:38:48.736Z,21.30
2022-08-06T11:41:50.497Z,21.19
2022-08-06T11:44:17.170Z,21.24
2022-08-06T11:46:48.313Z,21.31
2022-08-06T11:49:57.510Z,21.37
2022-08-06T11:52:37.645Z,21.40
2022-08-06T11:55:12.799Z,21.38
2022-08-06T11:57:49.663Z,21.53
2022-08-06T12:00:23.528Z,21.81
2022-08-06T12:02:54.659Z,22.13
2022-08-06T12:05:23.450Z,22.14
2022-08-06T12:08:42.313Z,22.08
2022-08-06T12:11:36.220Z,22.39
2022-08-06T12:14:33.274Z,22.47
2022-08-06T12:16:53.546Z,22.40
2022-08-06T12:19:22.038Z,22.51
2022-08-06T12:21:57.196Z,22.75
2022-08-06T12:24:35.652Z,23.08
2022-08-06T12:27:13.676Z,23.26
2022-08-06T12:29:42.325Z,23.77
2022-08-06T12:32:26.828Z,23.98
2022-08-06T12:34:58.604Z,23.59
2022-08-06T12:37:48.093Z,23.51
2022-08-06T12:40:27.707Z,23.13
2022-08-06T12:43:14.505Z,22.80
2022-08-06T12:46:06.305Z,22.45
2022-08-06T12:48:31.337Z,22.85
2022-08-06T12:51:03.953Z,23.17
2022-08-06T12:53:40.180Z,22.98
2022-08-06T12:56:29.133Z,23.30
2022-08-06T12:58:58.828Z,23.11
2022-08-06T13:02:11.894Z,22.92
2022-08-06T13:04:17.082Z,22.70
2022-08-06T13:06:48.913Z,22.51
2022-08-06T13:09:17.890Z,22.52
2022-08-06T13:11:51.632Z,22.47
2022-08-06T13:14:19.568Z,22.49
2022-08-06T13:16:56.390Z,22.42
2022-08-06T13:19:33.240Z,22.33
2022-08-06T13:22:08.603Z,22.54
2022-08-06T13:24:35.961Z,22.48
2022-08-06T13:27:05.997Z,22.74
2022-08-06T13:30:31.069Z,22.95
2022-08-06T13:32:33.987Z,23.35
2022-08-06T13:35:17.255Z,23.64
2022-08-06T13:37:57.090Z,23.71
2022-08-06T13:40:46.303Z,23.37
2022-08-06T13:43:39.627Z,23.31
2022-08-06T13:46:16.670Z,23.07
2022-08-06T13:48:46.316Z,23.28
2022-08-06T13:51:27.079Z,23.57
2022-08-06T13:53:57.232Z,23.41
2022-08-06T13:56:28.188Z,23.09
2022-08-06T13:58:59.353Z,23.02
2022-08-06T14:01:34.934Z,23.20
2022-08-06T14:04:11.737Z,23.32
2022-08-06T14:06:42.999Z,23.38
2022-08-06T14:09:19.761Z,23.11
2022-08-06T14:11:51.458Z,22.75
2022-08-06T14:14:22.306Z,22.68
2022-08-06T14:16:49.385Z,22.55
2022-08-06T14:20:14.124Z,22.43
2022-08-06T14:22:04.111Z,22.36
2022-08-06T14:24:33.038Z,22.35
2022-08-06T14:27:15.526Z,22.41
2022-08-06T14:30:28.990Z,22.36
2022-08-06T14:32:31.330Z,22.22
2022-08-06T14:34:58.921Z,22.24
2022-08-06T14:37:32.829Z,22.15
2022-08-06T14:40:32.663Z,22.17
2022-08-06T14:43:18.259Z,22.20
2022-08-06T14:45:44.698Z,22.11
2022-08-06T14:48:11.230Z,22.14
2022-08-06T14:50:42.110Z,22.16
2022-08-06T14:53:16.209Z,22.26
2022-08-06T14:56:07.217Z,22.28
2022-08-06T14:58:30.827Z,22.26
2022-08-06T15:00:57.638Z,22.28
2022-08-06T15:03:27.690Z,22.27
2022-08-06T15:06:04.358Z,22.27
2022-08-06T15:08:34.388Z,22.35
2022-08-06T15:11:05.894Z,22.28
2022-08-06T15:13:40.757Z,22.15
2022-08-06T15:16:10.659Z,22.19
2022-08-06T15:19:08.680Z,22.21
2022-08-06T15:21:44.091Z,22.07
2022-08-06T15:24:18.242Z,22.13
2022-08-06T15:26:48.634Z,22.07
2022-08-06T15:29:16.846Z,22.21
2022-08-06T15:31:46.349Z,22.20
2022-08-06T15:34:20.484Z,22.06
2022-08-06T15:37:02.854Z,22.05
2022-08-06T15:39:51.625Z,22.07
2022-08-06T15:42:20.045Z,22.23
2022-08-06T15:44:46.958Z,22.36
2022-08-06T15:47:14.866Z,22.42
2022-08-06T15:50:00.920Z,22.32
2022-08-06T15:52:28.739Z,22.36
2022-08-06T15:55:00.926Z,22.47
2022-08-06T15:57:49.873Z,22.50
2022-08-06T16:00:17.853Z,22.43
2022-08-06T16:02:50.030Z,22.45
2022-08-06T16:05:32.372Z,22.49
2022-08-06T16:08:10.951Z,22.50
2022-08-06T16:10:57.703Z,22.57
2022-08-06T16:13:24.194Z,22.61
2022-08-06T16:15:53.248Z,22.51
2022-08-06T16:18:31.086Z,22.47
2022-08-06T16:21:03.483Z,22.42
2022-08-06T16:23:58.032Z,22.28
2022-08-06T16:26:30.377Z,22.28
2022-08-06T16:29:07.711Z,22.24
2022-08-06T16:31:37.721Z,22.25
2022-08-06T16:34:14.267Z,22.21
2022-08-06T16:36:42.631Z,22.28
2022-08-06T16:39:13.309Z,22.38
2022-08-06T16:41:59.278Z,22.37
2022-08-06T16:44:34.716Z,22.45
2022-08-06T16:47:06.495Z,22.39
2022-08-06T16:50:17.620Z,22.39
2022-08-06T16:52:42.186Z,22.06
2022-08-06T16:55:08.255Z,21.90
2022-08-06T16:57:37.299Z,21.98
2022-08-06T17:00:06.459Z,22.05
2022-08-06T17:02:42.105Z,21.97
2022-08-06T17:05:17.364Z,21.97
2022-08-06T17:07:53.862Z,21.85
2022-08-06T17:10:25.908Z,21.73
2022-08-06T17:15:40.985Z,21.45
2022-08-06T17:18:28.480Z,21.46
2022-08-06T17:20:55.665Z,21.47
2022-08-06T17:26:09.977Z,21.18
2022-08-06T17:28:56.454Z,21.13
2022-08-06T17:31:58.241Z,21.16
2022-08-06T17:34:15.335Z,21.12
2022-08-06T17:36:50.623Z,20.92
2022-08-06T17:39:18.082Z,20.84
2022-08-06T17:41:52.811Z,20.97
2022-08-06T17:44:19.831Z,21.06
2022-08-06T17:46:48.152Z,21.11
2022-08-06T17:49:17.898Z,21.06
2022-08-06T17:51:45.352Z,20.93
2022-08-06T17:54:44.698Z,20.77
2022-08-06T17:57:00.262Z,20.68
2022-08-06T17:59:29.808Z,20.56
2022-08-06T18:01:58.619Z,20.54
2022-08-06T18:04:30.646Z,20.60
2022-08-06T18:07:01.252Z,20.55
2022-08-06T18:10:09.027Z,20.55
2022-08-06T18:12:28.025Z,20.56
2022-08-06T18:14:55.269Z,20.60
2022-08-06T18:17:21.836Z,20.50
2022-08-06T18:19:48.754Z,20.43
2022-08-06T18:22:22.791Z,20.41
2022-08-06T18:24:53.316Z,20.40
2022-08-06T18:27:55.803Z,20.32
2022-08-06T18:30:29.835Z,20.21
2022-08-06T18:33:10.112Z,20.16
2022-08-06T18:35:57.281Z,20.12
2022-08-06T18:38:32.072Z,20.14
2022-08-06T18:41:06.228Z,20.10
2022-08-06T18:43:49.678Z,20.06
2022-08-06T18:46:56.910Z,19.99
2022-08-06T18:49:26.667Z,19.92
2022-08-06T18:51:59.869Z,19.82
2022-08-06T18:54:26.742Z,19.76
2022-08-06T18:56:55.485Z,19.67
2022-08-06T18:59:29.658Z,19.60
2022-08-06T19:01:58.227Z,19.59
2022-08-06T19:04:27.276Z,19.59
2022-08-06T19:06:57.123Z,19.55
2022-08-06T19:09:33.927Z,19.39
2022-08-06T19:12:03.791Z,19.33
2022-08-06T19:14:44.169Z,19.25
2022-08-06T19:17:17.523Z,19.24
2022-08-06T19:20:19.662Z,19.19
2022-08-06T19:22:37.893Z,19.11
2022-08-06T19:25:09.653Z,19.07
2022-08-06T19:28:31.436Z,19.03
2022-08-06T19:30:38.726Z,18.98
2022-08-06T19:33:16.244Z,18.95
2022-08-06T19:36:03.011Z,18.91
2022-08-06T19:38:33.515Z,18.87
2022-08-06T19:41:01.225Z,18.82
2022-08-06T19:44:27.685Z,18.82
2022-08-06T19:46:30.371Z,18.77
2022-08-06T19:49:03.267Z,18.68
2022-08-06T19:52:03.352Z,18.61
2022-08-06T19:54:25.971Z,18.52
2022-08-06T19:57:02.934Z,18.52
2022-08-06T20:00:53.667Z,18.46
2022-08-06T20:02:20.350Z,18.47
2022-08-06T20:04:53.269Z,18.38
2022-08-06T20:07:25.024Z,18.38
2022-08-06T20:10:00.379Z,18.33
2022-08-06T20:12:33.980Z,18.28
2022-08-06T20:15:09.637Z,18.24
2022-08-06T20:17:46.207Z,18.24
2022-08-06T20:20:28.749Z,18.12
2022-08-06T20:23:08.488Z,18.04
2022-08-06T20:26:08.660Z,18.03
2022-08-06T20:29:07.470Z,17.98
2022-08-06T20:31:21.098Z,17.98
2022-08-06T20:33:58.104Z,17.96
2022-08-06T20:36:28.587Z,17.98
2022-08-06T20:38:55.503Z,17.98
2022-08-06T20:41:59.129Z,17.92
2022-08-06T20:44:09.071Z,17.88
2022-08-06T20:47:01.729Z,17.86
2022-08-06T20:49:29.538Z,17.82
2022-08-06T20:52:17.409Z,17.75
2022-08-06T20:54:52.681Z,17.70
2022-08-06T20:57:27.720Z,17.65
2022-08-06T20:59:56.579Z,17.65
2022-08-06T21:02:25.571Z,17.61
2022-08-06T21:05:13.452Z,17.59
2022-08-06T21:07:57.647Z,17.52
2022-08-06T21:10:31.688Z,17.49
2022-08-06T21:13:06.577Z,17.46
2022-08-06T21:15:54.271Z,17.41
2022-08-06T21:18:24.687Z,17.31
2022-08-06T21:20:53.084Z,17.26
2022-08-06T21:23:26.160Z,17.24
2022-08-06T21:26:08.165Z,17.27
2022-08-06T21:28:38.164Z,17.25
2022-08-06T21:31:04.850Z,16.94
2022-08-06T21:33:42.544Z,16.68
2022-08-06T21:36:19.337Z,16.51
2022-08-06T21:38:46.094Z,16.32
2022-08-06T21:41:55.429Z,16.17
2022-08-06T21:44:27.400Z,16.01
2022-08-06T21:46:59.067Z,15.82
2022-08-06T21:49:59.505Z,15.75
2022-08-06T21:52:28.555Z,15.54
2022-08-06T21:55:11.296Z,15.50
2022-08-06T21:57:49.898Z,15.39
2022-08-06T22:00:39.761Z,15.33
2022-08-06T22:04:34.554Z,15.25
2022-08-06T22:06:21.190Z,15.16
2022-08-06T22:08:46.553Z,15.20
2022-08-06T22:12:39.151Z,15.23
2022-08-06T22:14:08.662Z,15.13
2022-08-06T22:16:38.462Z,15.11
2022-08-06T22:19:04.958Z,15.08
2022-08-06T22:21:48.332Z,15.13
2022-08-06T22:24:18.348Z,15.14
2022-08-06T22:26:44.830Z,15.17
2022-08-06T22:29:18.075Z,15.20
2022-08-06T22:31:57.429Z,15.20
2022-08-06T22:34:31.085Z,15.14
2022-08-06T22:37:04.081Z,14.97
2022-08-06T22:39:38.640Z,14.94
2022-08-06T22:42:08.073Z,14.97
2022-08-06T22:44:51.845Z,14.91
2022-08-06T22:47:23.183Z,14.79
2022-08-06T22:50:00.650Z,14.59
2022-08-06T22:52:58.683Z,14.54
2022-08-06T22:55:18.229Z,14.52
2022-08-06T22:59:02.388Z,14.50
2022-08-06T23:00:34.373Z,14.48
2022-08-06T23:03:01.688Z,14.44
2022-08-06T23:05:30.887Z,14.50
2022-08-06T23:07:59.830Z,14.41
2022-08-06T23:10:27.346Z,14.25
2022-08-06T23:12:56.937Z,14.23
2022-08-06T23:15:39.293Z,14.21
2022-08-06T23:18:09.831Z,14.20
2022-08-06T23:20:36.886Z,14.31
2022-08-06T23:23:08.965Z,14.32
2022-08-06T23:26:01.817Z,14.26
2022-08-06T23:28:28.359Z,14.13
2022-08-06T23:30:55.992Z,14.10
2022-08-06T23:33:22.494Z,14.05
2022-08-06T23:35:50.716Z,14.02
2022-08-06T23:38:32.237Z,13.87
2022-08-06T23:41:00.326Z,13.81
2022-08-06T23:43:34.739Z,13.83
2022-08-06T23:46:03.481Z,13.84
2022-08-06T23:48:30.713Z,13.74
2022-08-06T23:50:58.798Z,13.72
2022-08-06T23:54:08.732Z,13.81
2022-08-06T23:56:15.580Z,13.96
2022-08-06T23:58:47.025Z,13.92
